Terminal Aerodrome Forecast
Issued by NWS Duluth, MN

Home | Current Version | Previous Version | Text Only | Print | Product List | Glossary On
Versions: 1 2 3 4 5 6 7 8 9 10 11 12 13 14 15 16 17 18 19 20
000
FTUS43 KDLH 220252 AAC
TAFDLH
TAF AMD
KDLH 220252Z 2203/2224 09010KT 3SM BR VCTS SCT003 OVC050CB
      TEMPO 2203/2204 VRB15G25KT 1SM -TSRA BR BKN003 OVC050CB
     FM220400 08008KT 5SM BR SCT003 SCT025 BKN050
      TEMPO 2204/2205 1 1/2SM BR BKN030 OVC050
     FM221000 VRB03KT 2SM BR VCSH BKN008
      TEMPO 2210/2214 6SM -TSRA BR BKN010CB
     FM221600 10007KT P6SM BKN010
     FM221900 12004KT P6SM BKN035=

USA.gov is the U.S. government's official web portal to all federal, state and local government web resources and services.